createdAt,value
2023-12-26T00:00:40.186Z,6.30
2023-12-26T00:03:09.393Z,6.30
2023-12-26T00:05:41.306Z,6.30
2023-12-26T00:08:09.633Z,6.30
2023-12-26T00:10:39.077Z,6.20
2023-12-26T00:13:08.138Z,6.30
2023-12-26T00:15:36.423Z,6.20
2023-12-26T00:18:08.262Z,6.20
2023-12-26T00:20:41.301Z,6.20
2023-12-26T00:23:09.857Z,6.20
2023-12-26T00:25:46.124Z,6.20
2023-12-26T00:28:15.311Z,6.10
2023-12-26T00:30:44.251Z,6.20
2023-12-26T00:33:12.625Z,6.10
2023-12-26T00:35:43.372Z,6.10
2023-12-26T00:38:12.195Z,6.00
2023-12-26T00:40:42.541Z,6.10
2023-12-26T00:43:13.137Z,6.10
2023-12-26T00:45:41.320Z,6.10
2023-12-26T00:48:11.324Z,6.10
2023-12-26T00:50:43.317Z,6.00
2023-12-26T00:53:11.964Z,6.00
2023-12-26T00:55:41.211Z,6.00
2023-12-26T00:58:09.314Z,6.00
2023-12-26T01:00:41.271Z,6.00
2023-12-26T01:03:10.590Z,6.00
2023-12-26T01:05:39.495Z,6.00
2023-12-26T01:08:10.237Z,6.00
2023-12-26T01:10:40.490Z,6.00
2023-12-26T01:13:08.650Z,6.00
2023-12-26T01:15:36.929Z,6.00
2023-12-26T01:18:08.268Z,6.00
2023-12-26T01:20:37.233Z,6.10
2023-12-26T01:23:06.431Z,6.10
2023-12-26T01:25:36.136Z,6.00
2023-12-26T01:28:05.216Z,6.00
2023-12-26T01:30:34.544Z,6.00
2023-12-26T01:33:03.401Z,6.10
2023-12-26T01:35:34.084Z,6.00
2023-12-26T01:38:03.743Z,6.10
2023-12-26T01:40:31.855Z,6.10
2023-12-26T01:43:01.014Z,6.00
2023-12-26T01:45:30.174Z,6.00
2023-12-26T01:48:01.859Z,6.10
2023-12-26T01:50:35.172Z,6.10
2023-12-26T01:53:04.220Z,6.10
2023-12-26T01:55:34.153Z,6.10
2023-12-26T01:58:06.262Z,6.10
2023-12-26T02:00:34.417Z,6.20
2023-12-26T02:03:02.586Z,6.20
2023-12-26T02:05:32.132Z,6.20
2023-12-26T02:08:01.936Z,6.20
2023-12-26T02:10:35.152Z,6.30
2023-12-26T02:13:03.361Z,6.30
2023-12-26T02:15:32.232Z,6.30
2023-12-26T02:18:01.645Z,6.30
2023-12-26T02:20:30.260Z,6.30
2023-12-26T02:23:04.564Z,6.30
2023-12-26T02:25:36.143Z,6.40
2023-12-26T02:28:09.279Z,6.40
2023-12-26T02:30:38.649Z,6.40
2023-12-26T02:33:07.409Z,6.40
2023-12-26T02:35:37.237Z,6.50
2023-12-26T02:38:06.486Z,6.50
2023-12-26T02:40:40.244Z,6.50
2023-12-26T02:43:08.438Z,6.50
2023-12-26T02:45:36.951Z,6.60
2023-12-26T02:48:06.607Z,6.60
2023-12-26T02:50:35.160Z,6.60
2023-12-26T02:53:03.474Z,6.60
2023-12-26T02:55:35.105Z,6.60
2023-12-26T02:58:05.227Z,6.60
2023-12-26T03:00:35.687Z,6.70
2023-12-26T03:03:28.693Z,6.70
2023-12-26T03:05:57.783Z,6.70
2023-12-26T03:08:26.170Z,6.70
2023-12-26T03:10:54.300Z,6.70
2023-12-26T03:13:26.386Z,6.70
2023-12-26T03:15:54.525Z,6.70
2023-12-26T03:18:23.200Z,6.70
2023-12-26T03:20:52.352Z,6.80
2023-12-26T03:23:20.406Z,6.80
2023-12-26T03:25:52.264Z,6.80
2023-12-26T03:28:20.404Z,6.80
2023-12-26T03:30:51.351Z,6.90
2023-12-26T03:33:19.585Z,6.90
2023-12-26T03:35:48.893Z,7.00
2023-12-26T03:38:18.145Z,7.00
2023-12-26T03:40:47.158Z,7.00
2023-12-26T03:43:17.691Z,7.00
2023-12-26T03:45:47.167Z,7.10
2023-12-26T03:48:17.522Z,7.10
2023-12-26T03:50:49.028Z,7.10
2023-12-26T03:53:18.220Z,7.10
2023-12-26T03:55:48.219Z,7.20
2023-12-26T03:58:16.648Z,7.20
2023-12-26T04:00:44.831Z,7.20
2023-12-26T04:03:19.359Z,7.30
2023-12-26T04:05:47.968Z,7.30
2023-12-26T04:08:17.279Z,7.30
2023-12-26T04:10:45.907Z,7.30
2023-12-26T04:13:18.011Z,7.30
2023-12-26T04:15:47.212Z,7.30
2023-12-26T04:18:16.328Z,7.40
2023-12-26T04:20:46.005Z,7.40
2023-12-26T04:23:18.200Z,7.40
2023-12-26T04:25:46.666Z,7.40
2023-12-26T04:28:15.437Z,7.30
2023-12-26T04:30:44.589Z,7.40
2023-12-26T04:33:13.892Z,7.40
2023-12-26T04:35:47.225Z,7.40
2023-12-26T04:38:16.242Z,7.40
2023-12-26T04:40:44.508Z,7.40
2023-12-26T04:43:13.168Z,7.40
2023-12-26T04:45:42.296Z,7.40
2023-12-26T04:48:10.870Z,7.50
2023-12-26T04:50:41.338Z,7.50
2023-12-26T04:53:11.673Z,7.50
2023-12-26T04:55:39.953Z,7.50
2023-12-26T04:58:08.149Z,7.50
2023-12-26T05:00:37.466Z,7.50
2023-12-26T05:03:06.415Z,7.50
2023-12-26T05:05:35.354Z,7.50
2023-12-26T05:08:04.225Z,7.50
2023-12-26T05:10:35.496Z,7.50
2023-12-26T05:13:05.178Z,7.50
2023-12-26T05:15:37.392Z,7.60
2023-12-26T05:18:10.009Z,7.60
2023-12-26T05:20:39.324Z,7.60
2023-12-26T05:23:10.215Z,7.60
2023-12-26T05:25:40.226Z,7.60
2023-12-26T05:28:09.591Z,7.70
2023-12-26T05:30:39.374Z,7.70
2023-12-26T05:33:07.922Z,7.70
2023-12-26T05:35:40.472Z,7.70
2023-12-26T05:38:07.773Z,7.70
2023-12-26T05:40:37.331Z,7.70
2023-12-26T05:43:06.974Z,7.70
2023-12-26T05:45:35.239Z,7.70
2023-12-26T05:48:07.420Z,7.70
2023-12-26T05:50:35.936Z,7.80
2023-12-26T05:53:05.284Z,7.80
2023-12-26T05:55:34.243Z,7.80
2023-12-26T05:58:02.372Z,7.80
2023-12-26T06:00:35.417Z,7.90
2023-12-26T06:03:03.612Z,7.80
2023-12-26T06:05:32.357Z,7.90
2023-12-26T06:08:01.341Z,7.90
2023-12-26T06:10:31.057Z,7.90
2023-12-26T06:13:02.472Z,7.90
2023-12-26T06:15:33.363Z,7.90
2023-12-26T06:18:01.979Z,7.90
2023-12-26T06:20:30.372Z,8.00
2023-12-26T06:23:03.669Z,8.00
2023-12-26T06:25:31.925Z,8.00
2023-12-26T06:28:00.064Z,8.00
2023-12-26T06:30:29.518Z,8.00
2023-12-26T06:32:59.598Z,8.10
2023-12-26T06:35:31.456Z,8.10
2023-12-26T06:38:00.241Z,8.10
2023-12-26T06:40:28.404Z,8.10
2023-12-26T06:42:58.495Z,8.10
2023-12-26T06:45:26.871Z,8.10
2023-12-26T06:47:55.434Z,8.10
2023-12-26T06:50:27.796Z,8.20
2023-12-26T06:52:56.434Z,8.20
2023-12-26T06:55:24.713Z,8.20
2023-12-26T06:57:54.072Z,8.30
2023-12-26T07:00:23.492Z,8.30
2023-12-26T07:02:55.350Z,8.30
2023-12-26T07:05:25.301Z,8.30
2023-12-26T07:07:55.292Z,8.30
2023-12-26T07:10:23.500Z,8.30
2023-12-26T07:12:51.775Z,8.40
2023-12-26T07:15:22.361Z,8.40
2023-12-26T07:17:51.605Z,8.40
2023-12-26T07:20:21.125Z,8.40
2023-12-26T07:22:50.303Z,8.40
2023-12-26T07:25:20.139Z,8.50
2023-12-26T07:27:50.169Z,8.50
2023-12-26T07:30:19.444Z,8.50
2023-12-26T07:32:49.063Z,8.60
2023-12-26T07:35:17.458Z,8.60
2023-12-26T07:37:47.270Z,8.60
2023-12-26T07:40:19.399Z,8.60
2023-12-26T07:42:48.936Z,8.60
2023-12-26T07:45:17.271Z,8.70
2023-12-26T07:47:45.575Z,8.70
2023-12-26T07:50:14.532Z,8.70
2023-12-26T07:52:42.718Z,8.70
2023-12-26T07:55:15.800Z,8.70
2023-12-26T07:57:45.433Z,8.70
2023-12-26T08:00:16.513Z,8.80
2023-12-26T08:02:47.489Z,8.80
2023-12-26T08:05:15.774Z,8.80
2023-12-26T08:07:44.206Z,8.80
2023-12-26T08:10:12.406Z,8.80
2023-12-26T08:12:43.416Z,8.80
2023-12-26T08:15:15.335Z,8.90
2023-12-26T08:17:45.275Z,8.90
2023-12-26T08:20:14.703Z,8.90
2023-12-26T08:22:42.916Z,8.90
2023-12-26T08:25:11.137Z,8.90
2023-12-26T08:27:39.465Z,8.90
2023-12-26T08:30:15.962Z,8.90
2023-12-26T08:32:45.425Z,9.00
2023-12-26T08:35:13.835Z,9.00
2023-12-26T08:37:46.566Z,9.10
2023-12-26T08:40:13.754Z,9.10
2023-12-26T08:42:41.927Z,9.10
2023-12-26T08:45:11.402Z,9.10
2023-12-26T08:47:41.036Z,9.20
2023-12-26T08:50:09.898Z,9.20
2023-12-26T08:52:39.464Z,9.30
2023-12-26T08:55:09.219Z,9.30
2023-12-26T08:57:37.579Z,9.40
2023-12-26T09:00:06.837Z,9.40
2023-12-26T09:02:34.923Z,9.50
2023-12-26T09:05:09.468Z,9.50
2023-12-26T09:07:37.606Z,9.50
2023-12-26T09:10:07.426Z,9.60
2023-12-26T09:12:35.518Z,9.60
2023-12-26T09:15:03.934Z,9.60
2023-12-26T09:17:35.495Z,9.60
2023-12-26T09:20:05.622Z,9.60
2023-12-26T09:22:34.472Z,9.60
2023-12-26T09:25:03.543Z,9.60
2023-12-26T09:27:31.848Z,9.70
2023-12-26T09:30:00.407Z,9.70
2023-12-26T09:32:30.451Z,9.70
2023-12-26T09:34:58.679Z,9.70
2023-12-26T09:37:28.817Z,9.70
2023-12-26T09:39:56.950Z,9.70
2023-12-26T09:42:26.528Z,9.70
2023-12-26T09:44:58.510Z,9.70
2023-12-26T09:47:28.417Z,9.70
2023-12-26T09:49:57.526Z,9.80
2023-12-26T09:52:29.470Z,9.80
2023-12-26T09:54:59.460Z,9.80
2023-12-26T09:57:29.399Z,9.90
2023-12-26T10:00:09.922Z,9.90
2023-12-26T10:02:42.818Z,9.90
2023-12-26T10:05:15.542Z,9.90
2023-12-26T10:07:46.430Z,9.90
2023-12-26T10:10:20.980Z,10.00
2023-12-26T10:12:52.414Z,10.00
2023-12-26T10:15:20.878Z,10.00
2023-12-26T10:17:49.507Z,10.10
2023-12-26T10:20:18.746Z,10.10
2023-12-26T10:22:48.347Z,10.10
2023-12-26T10:25:20.351Z,10.10
2023-12-26T10:27:59.565Z,10.10
2023-12-26T10:30:28.401Z,10.10
2023-12-26T10:33:04.446Z,10.20
2023-12-26T10:35:35.352Z,10.20
2023-12-26T10:38:06.395Z,10.20
2023-12-26T10:40:35.416Z,10.20
2023-12-26T10:43:05.407Z,10.20
2023-12-26T10:45:35.535Z,10.10
2023-12-26T10:48:06.472Z,10.10
2023-12-26T10:50:36.367Z,10.20
2023-12-26T10:53:05.872Z,10.10
2023-12-26T10:55:35.331Z,10.10
2023-12-26T10:58:04.305Z,10.10
2023-12-26T11:00:32.594Z,10.10
2023-12-26T11:03:01.535Z,10.00
2023-12-26T11:05:30.045Z,10.00
2023-12-26T11:07:59.380Z,10.00
2023-12-26T11:10:32.567Z,10.00
2023-12-26T11:13:00.437Z,9.90
2023-12-26T11:15:28.664Z,10.00
2023-12-26T11:17:56.527Z,10.00
2023-12-26T11:20:23.808Z,10.00
2023-12-26T11:22:53.494Z,10.00
2023-12-26T11:25:20.733Z,10.00
2023-12-26T11:27:49.990Z,10.00
2023-12-26T11:30:19.548Z,10.00
2023-12-26T11:32:47.203Z,10.00
2023-12-26T11:35:15.453Z,10.00
2023-12-26T11:37:43.756Z,10.00
2023-12-26T11:40:12.485Z,10.10
2023-12-26T11:42:40.488Z,10.10
2023-12-26T11:45:15.602Z,10.00
2023-12-26T11:47:43.477Z,10.00
2023-12-26T11:50:12.001Z,10.00
2023-12-26T11:52:41.038Z,10.00
2023-12-26T11:55:08.488Z,10.00
2023-12-26T11:57:36.746Z,10.10
2023-12-26T12:00:05.515Z,10.00
2023-12-26T12:02:34.125Z,10.00
2023-12-26T12:05:07.424Z,10.00
2023-12-26T12:07:34.603Z,10.00
2023-12-26T12:10:14.562Z,10.00
2023-12-26T12:12:43.962Z,10.10
2023-12-26T12:15:12.881Z,10.10
2023-12-26T12:17:47.573Z,10.10
2023-12-26T12:20:19.642Z,10.20
2023-12-26T12:22:47.632Z,10.10
2023-12-26T12:25:17.297Z,10.10
2023-12-26T12:28:11.042Z,10.10
2023-12-26T12:30:41.499Z,10.10
2023-12-26T12:33:23.685Z,10.10
2023-12-26T12:35:55.548Z,10.10
2023-12-26T12:38:24.520Z,10.10
2023-12-26T12:40:53.406Z,10.10
2023-12-26T12:43:23.792Z,10.10
2023-12-26T12:45:55.162Z,10.10
2023-12-26T12:48:24.706Z,10.10
2023-12-26T12:50:51.989Z,10.10
2023-12-26T12:53:20.408Z,10.10
2023-12-26T12:55:48.438Z,10.10
2023-12-26T12:58:15.665Z,10.10
2023-12-26T13:00:43.822Z,10.10
2023-12-26T13:03:21.847Z,10.00
2023-12-26T13:05:58.750Z,10.00
2023-12-26T13:08:26.547Z,10.00
2023-12-26T13:10:53.690Z,10.00
2023-12-26T13:13:21.985Z,10.00
2023-12-26T13:15:49.175Z,10.00
2023-12-26T13:18:16.539Z,9.90
2023-12-26T13:20:44.736Z,10.00
2023-12-26T13:23:15.375Z,10.00
2023-12-26T13:25:43.245Z,10.00
2023-12-26T13:28:14.017Z,10.00
2023-12-26T13:30:41.238Z,10.00
2023-12-26T13:33:09.674Z,10.00
2023-12-26T13:35:37.916Z,10.00
2023-12-26T13:38:06.347Z,9.90
2023-12-26T13:40:35.135Z,9.90
2023-12-26T13:43:03.459Z,9.90
2023-12-26T13:45:35.361Z,9.90
2023-12-26T13:48:03.828Z,9.80
2023-12-26T13:50:31.517Z,9.80
2023-12-26T13:52:58.961Z,9.80
2023-12-26T13:58:20.624Z,9.80
2023-12-26T14:00:49.492Z,9.80
2023-12-26T14:03:16.729Z,9.70
2023-12-26T14:08:37.057Z,9.70
2023-12-26T14:11:05.180Z,9.60
2023-12-26T14:13:37.503Z,9.70
2023-12-26T14:16:06.053Z,9.60
2023-12-26T14:18:35.006Z,9.60
2023-12-26T14:21:04.971Z,9.60
2023-12-26T14:23:33.985Z,9.60
2023-12-26T14:26:02.570Z,9.60
2023-12-26T14:28:30.780Z,9.60
2023-12-26T14:31:04.764Z,9.50
2023-12-26T14:33:33.341Z,9.50
2023-12-26T14:36:02.528Z,9.50
2023-12-26T14:38:30.662Z,9.50
2023-12-26T14:41:03.586Z,9.50
2023-12-26T14:43:32.472Z,9.50
2023-12-26T14:46:00.624Z,9.40
2023-12-26T14:48:31.724Z,9.40
2023-12-26T14:51:00.039Z,9.40
2023-12-26T14:53:31.714Z,9.40
2023-12-26T14:56:03.988Z,9.30
2023-12-26T14:58:32.480Z,9.30
2023-12-26T15:01:00.714Z,9.30
2023-12-26T15:03:32.632Z,9.30
2023-12-26T15:06:01.627Z,9.30
2023-12-26T15:08:30.552Z,9.30
2023-12-26T15:10:59.479Z,9.30
2023-12-26T15:13:36.567Z,9.30
2023-12-26T15:16:17.480Z,9.30
2023-12-26T15:18:47.588Z,9.30
2023-12-26T15:21:16.607Z,9.30
2023-12-26T15:23:46.496Z,9.30
2023-12-26T15:26:18.087Z,9.30
2023-12-26T15:28:48.594Z,9.20
2023-12-26T15:31:20.333Z,9.20
2023-12-26T15:33:52.545Z,9.20
2023-12-26T15:36:21.629Z,9.20
2023-12-26T15:38:50.344Z,9.20
2023-12-26T15:41:20.024Z,9.10
2023-12-26T15:43:49.547Z,9.10
2023-12-26T15:46:19.132Z,9.10
2023-12-26T15:48:51.796Z,9.10
2023-12-26T15:51:22.162Z,9.10
2023-12-26T15:53:55.714Z,9.00
2023-12-26T15:56:25.738Z,9.00
2023-12-26T15:58:54.075Z,9.00
2023-12-26T16:01:22.648Z,9.00
2023-12-26T16:03:57.381Z,8.90
2023-12-26T16:06:27.752Z,8.90
2023-12-26T16:08:57.836Z,8.90
2023-12-26T16:11:26.255Z,8.90
2023-12-26T16:13:58.584Z,8.90
2023-12-26T16:16:27.576Z,8.90
2023-12-26T16:18:57.880Z,8.90
2023-12-26T16:21:27.594Z,8.80
2023-12-26T16:23:59.696Z,8.80
2023-12-26T16:26:28.538Z,8.70
2023-12-26T16:28:56.595Z,8.70
2023-12-26T16:31:25.614Z,8.70
2023-12-26T16:33:55.796Z,8.70
2023-12-26T16:36:25.562Z,8.70
2023-12-26T16:38:54.472Z,8.70
2023-12-26T16:41:24.557Z,8.70
2023-12-26T16:43:52.614Z,8.60
2023-12-26T16:46:23.615Z,8.60
2023-12-26T16:48:51.931Z,8.60
2023-12-26T16:51:20.621Z,8.60
2023-12-26T16:53:50.291Z,8.60
2023-12-26T16:56:19.367Z,8.60
2023-12-26T16:58:48.615Z,8.60
2023-12-26T17:01:16.761Z,8.50
2023-12-26T17:03:48.533Z,8.50
2023-12-26T17:06:17.615Z,8.50
2023-12-26T17:08:45.788Z,8.50
2023-12-26T17:11:18.632Z,8.40
2023-12-26T17:13:46.851Z,8.40
2023-12-26T17:16:18.911Z,8.40
2023-12-26T17:18:47.765Z,8.40
2023-12-26T17:21:16.122Z,8.40
2023-12-26T17:23:45.515Z,8.40
2023-12-26T17:26:15.984Z,8.40
2023-12-26T17:28:45.766Z,8.50
2023-12-26T17:31:13.052Z,8.40
2023-12-26T17:33:41.627Z,8.40
2023-12-26T17:36:10.413Z,8.50
2023-12-26T17:38:38.958Z,8.50
2023-12-26T17:41:07.126Z,8.50
2023-12-26T17:43:40.152Z,8.60
2023-12-26T17:46:08.332Z,8.60
2023-12-26T17:48:36.649Z,8.60
2023-12-26T17:51:05.644Z,8.60
2023-12-26T17:53:33.889Z,8.60
2023-12-26T17:56:02.048Z,8.60
2023-12-26T17:58:33.742Z,8.60
2023-12-26T18:01:03.375Z,8.50
2023-12-26T18:03:32.484Z,8.50
2023-12-26T18:06:00.788Z,8.50
2023-12-26T18:08:29.416Z,8.50
2023-12-26T18:10:57.523Z,8.50
2023-12-26T18:13:27.116Z,8.50
2023-12-26T18:15:56.332Z,8.50
2023-12-26T18:18:27.752Z,8.50
2023-12-26T18:20:56.314Z,8.50
2023-12-26T18:23:24.471Z,8.50
2023-12-26T18:25:55.583Z,8.50
2023-12-26T18:28:24.838Z,8.50
2023-12-26T18:30:54.166Z,8.50
2023-12-26T18:33:26.316Z,8.50
2023-12-26T18:35:54.773Z,8.50
2023-12-26T18:38:23.000Z,8.50
2023-12-26T18:40:51.109Z,8.50
2023-12-26T18:43:20.798Z,8.50
2023-12-26T18:45:49.830Z,8.50
2023-12-26T18:48:19.611Z,8.50
2023-12-26T18:50:53.127Z,8.50
2023-12-26T18:53:21.414Z,8.50
2023-12-26T18:55:49.950Z,8.50
2023-12-26T18:58:18.615Z,8.50
2023-12-26T19:00:46.986Z,8.50
2023-12-26T19:03:15.482Z,8.50
2023-12-26T19:05:43.824Z,8.50
2023-12-26T19:08:13.394Z,8.50
2023-12-26T19:10:41.780Z,8.50
2023-12-26T19:13:09.927Z,8.50
2023-12-26T19:15:41.659Z,8.50
2023-12-26T19:18:11.254Z,8.50
2023-12-26T19:20:42.192Z,8.50
2023-12-26T19:23:10.559Z,8.50
2023-12-26T19:25:42.791Z,8.50
2023-12-26T19:28:11.195Z,8.50
2023-12-26T19:30:40.590Z,8.40
2023-12-26T19:33:11.281Z,8.40
2023-12-26T19:35:39.940Z,8.40
2023-12-26T19:38:09.967Z,8.40
2023-12-26T19:40:39.589Z,8.40
2023-12-26T19:43:07.771Z,8.30
2023-12-26T19:45:39.142Z,8.40
2023-12-26T19:48:09.425Z,8.40
2023-12-26T19:50:38.991Z,8.40
2023-12-26T19:53:08.330Z,8.40
2023-12-26T19:55:36.411Z,8.40
2023-12-26T19:58:08.962Z,8.30
2023-12-26T20:00:37.449Z,8.40
2023-12-26T20:03:15.596Z,8.40
2023-12-26T20:05:59.438Z,8.40
2023-12-26T20:08:28.926Z,8.40
2023-12-26T20:10:58.187Z,8.40
2023-12-26T20:13:28.507Z,8.40
2023-12-26T20:15:56.994Z,8.40
2023-12-26T20:18:25.457Z,8.40
2023-12-26T20:20:54.013Z,8.40
2023-12-26T20:23:22.716Z,8.40
2023-12-26T20:25:51.492Z,8.40
2023-12-26T20:28:23.079Z,8.40
2023-12-26T20:30:53.755Z,8.40
2023-12-26T20:33:22.032Z,8.40
2023-12-26T20:35:50.641Z,8.40
2023-12-26T20:38:24.307Z,8.30
2023-12-26T20:40:53.969Z,8.30
2023-12-26T20:43:24.160Z,8.30
2023-12-26T20:45:53.709Z,8.40
2023-12-26T20:48:22.073Z,8.30
2023-12-26T20:50:52.407Z,8.40
2023-12-26T20:53:20.611Z,8.30
2023-12-26T20:55:51.710Z,8.30
2023-12-26T20:58:19.666Z,8.40
2023-12-26T21:00:48.046Z,8.40
2023-12-26T21:03:21.763Z,8.40
2023-12-26T21:05:50.042Z,8.40
2023-12-26T21:08:18.689Z,8.40
2023-12-26T21:10:46.803Z,8.40
2023-12-26T21:13:16.724Z,8.30
2023-12-26T21:15:44.802Z,8.40
2023-12-26T21:18:15.840Z,8.40
2023-12-26T21:20:47.353Z,8.40
2023-12-26T21:23:16.707Z,8.40
2023-12-26T21:25:45.208Z,8.30
2023-12-26T21:28:14.731Z,8.40
2023-12-26T21:30:43.688Z,8.40
2023-12-26T21:33:14.154Z,8.30
2023-12-26T21:35:42.964Z,8.30
2023-12-26T21:38:12.655Z,8.40
2023-12-26T21:40:44.490Z,8.30
2023-12-26T21:43:13.692Z,8.30
2023-12-26T21:45:43.752Z,8.20
2023-12-26T21:48:13.487Z,8.20
2023-12-26T21:50:42.302Z,8.20
2023-12-26T21:53:12.280Z,8.20
2023-12-26T21:55:40.407Z,8.20
2023-12-26T21:58:10.476Z,8.20
2023-12-26T22:00:39.762Z,8.20
2023-12-26T22:03:08.129Z,8.20
2023-12-26T22:05:36.564Z,8.20
2023-12-26T22:08:08.767Z,8.10
2023-12-26T22:10:40.622Z,8.10
2023-12-26T22:13:10.665Z,8.10
2023-12-26T22:15:38.906Z,8.10
2023-12-26T22:18:08.748Z,8.00
2023-12-26T22:20:37.328Z,8.00
2023-12-26T22:23:05.671Z,7.90
2023-12-26T22:25:35.687Z,7.90
2023-12-26T22:28:05.938Z,7.90
2023-12-26T22:30:34.524Z,7.80
2023-12-26T22:33:03.136Z,7.80
2023-12-26T22:35:31.526Z,7.70
2023-12-26T22:38:00.035Z,7.70
2023-12-26T22:40:28.740Z,7.70
2023-12-26T22:42:57.420Z,7.70
2023-12-26T22:45:26.892Z,7.70
2023-12-26T22:47:55.634Z,7.70
2023-12-26T22:50:24.443Z,7.60
2023-12-26T22:52:53.270Z,7.60
2023-12-26T22:55:22.668Z,7.60
2023-12-26T22:57:50.764Z,7.60
2023-12-26T23:00:22.759Z,7.50
2023-12-26T23:02:52.887Z,7.50
2023-12-26T23:05:24.392Z,7.40
2023-12-26T23:07:54.861Z,7.40
2023-12-26T23:10:23.262Z,7.40
2023-12-26T23:12:52.501Z,7.40
2023-12-26T23:15:21.778Z,7.40
2023-12-26T23:17:50.373Z,7.30
2023-12-26T23:20:20.868Z,7.30
2023-12-26T23:22:49.766Z,7.30
2023-12-26T23:25:17.888Z,7.30
2023-12-26T23:27:48.347Z,7.30
2023-12-26T23:30:17.042Z,7.30
2023-12-26T23:32:45.277Z,7.20
2023-12-26T23:35:14.888Z,7.30
2023-12-26T23:37:44.780Z,7.30
2023-12-26T23:40:13.894Z,7.20
2023-12-26T23:42:42.751Z,7.20
2023-12-26T23:45:11.088Z,7.20
2023-12-26T23:47:39.521Z,7.20
2023-12-26T23:50:09.798Z,7.20
2023-12-26T23:52:42.445Z,7.20
2023-12-26T23:55:13.812Z,7.20
2023-12-26T23:57:42.137Z,7.20
